createdAt,value
2018-04-20T00:00:53.932Z,11.10
2018-04-20T00:01:53.918Z,11.90
2018-04-20T00:02:53.904Z,9.70
2018-04-20T00:03:53.833Z,9.00
2018-04-20T00:04:53.835Z,10.60
2018-04-20T00:05:53.763Z,10.20
2018-04-20T00:06:53.802Z,9.60
2018-04-20T00:07:53.806Z,8.90
2018-04-20T00:08:53.823Z,13.30
2018-04-20T00:09:53.902Z,10.20
2018-04-20T00:10:53.789Z,9.40
2018-04-20T00:11:53.895Z,10.50
2018-04-20T00:12:53.786Z,10.10
2018-04-20T00:13:53.802Z,9.30
2018-04-20T00:14:53.820Z,9.50
2018-04-20T00:15:53.798Z,9.40
2018-04-20T00:16:53.832Z,9.60
2018-04-20T00:17:53.882Z,9.60
2018-04-20T00:18:53.839Z,10.30
2018-04-20T00:19:53.824Z,9.80
2018-04-20T00:20:54.012Z,9.10
2018-04-20T00:21:53.949Z,10.30
2018-04-20T00:22:53.925Z,11.00
2018-04-20T00:23:53.881Z,8.60
2018-04-20T00:24:53.900Z,11.30
2018-04-20T00:25:53.887Z,10.40
2018-04-20T00:26:53.871Z,10.10
2018-04-20T00:27:53.852Z,9.70
2018-04-20T00:28:53.855Z,10.30
2018-04-20T00:29:53.959Z,9.40
2018-04-20T00:30:53.887Z,9.10
2018-04-20T00:31:53.935Z,11.20
2018-04-20T00:32:53.939Z,9.90
2018-04-20T00:33:53.913Z,9.30
2018-04-20T00:34:53.985Z,9.10
2018-04-20T00:35:53.946Z,10.20
2018-04-20T00:36:53.949Z,9.40
2018-04-20T00:37:54.026Z,9.90
2018-04-20T00:38:54.047Z,9.50
2018-04-20T00:39:53.964Z,9.80
2018-04-20T00:40:53.973Z,10.90
2018-04-20T00:41:53.931Z,9.10
2018-04-20T00:42:54.011Z,8.50
2018-04-20T00:43:54.013Z,9.70
2018-04-20T00:44:54.063Z,9.50
2018-04-20T00:45:54.064Z,9.70
2018-04-20T00:46:54.022Z,9.40
2018-04-20T00:47:54.030Z,10.00
2018-04-20T00:48:53.929Z,9.80
2018-04-20T00:49:53.983Z,8.90
2018-04-20T00:50:54.053Z,9.40
2018-04-20T00:51:53.986Z,10.90
2018-04-20T00:52:54.155Z,8.90
2018-04-20T00:53:54.120Z,9.60
2018-04-20T00:54:54.701Z,10.60
2018-04-20T00:55:54.031Z,9.90
2018-04-20T00:56:54.142Z,11.00
2018-04-20T00:57:54.040Z,9.40
2018-04-20T00:58:54.170Z,9.70
2018-04-20T00:59:54.111Z,9.30
2018-04-20T01:00:54.058Z,9.30
2018-04-20T01:01:54.002Z,9.40
2018-04-20T01:02:54.089Z,9.90
2018-04-20T01:03:54.041Z,9.90
2018-04-20T01:04:54.064Z,11.60
2018-04-20T01:05:54.090Z,9.90
2018-04-20T01:23:06.243Z,11.90
2018-04-20T01:24:05.062Z,11.40
2018-04-20T01:25:06.119Z,10.00
2018-04-20T01:26:06.111Z,10.60
2018-04-20T01:27:04.740Z,10.40
2018-04-20T01:28:04.849Z,13.00
2018-04-20T01:39:23.081Z,11.80
2018-04-20T01:40:45.425Z,12.40
2018-04-20T01:41:21.747Z,10.90
2018-04-20T01:42:21.680Z,12.10
2018-04-20T01:43:21.660Z,11.20
2018-04-20T01:44:21.730Z,11.60
2018-04-20T01:45:21.724Z,11.50
2018-04-20T01:46:21.603Z,11.60
2018-04-20T01:47:21.612Z,10.50
2018-04-20T01:48:21.659Z,11.40
2018-04-20T01:49:21.708Z,11.50
2018-04-20T01:50:21.687Z,12.50
2018-04-20T01:51:21.681Z,12.10
2018-04-20T01:52:21.756Z,12.30
2018-04-20T01:53:21.654Z,15.20
2018-04-20T01:54:21.630Z,11.60
2018-04-20T01:55:21.958Z,11.90
2018-04-20T01:56:21.698Z,12.10
2018-04-20T01:57:21.717Z,12.40
2018-04-20T01:58:21.642Z,11.40
2018-04-20T01:59:21.705Z,11.70
2018-04-20T02:00:21.678Z,11.30
2018-04-20T02:01:21.661Z,12.10
2018-04-20T02:02:21.742Z,11.50
2018-04-20T02:03:21.709Z,12.00
2018-04-20T02:04:21.812Z,11.60
2018-04-20T02:05:21.791Z,11.70
2018-04-20T02:06:21.797Z,15.70
2018-04-20T02:07:22.000Z,11.90
2018-04-20T02:08:22.079Z,13.20
2018-04-20T02:09:22.063Z,12.50
2018-04-20T02:10:21.900Z,12.00
2018-04-20T02:11:21.763Z,11.50
2018-04-20T02:12:21.875Z,11.70
2018-04-20T02:13:21.866Z,11.50
2018-04-20T02:14:21.809Z,11.80
2018-04-20T02:15:21.851Z,11.30
2018-04-20T02:16:21.856Z,13.10
2018-04-20T02:17:21.857Z,12.40
2018-04-20T02:18:21.989Z,12.30
2018-04-20T02:19:21.848Z,11.40
2018-04-20T02:20:21.836Z,12.60
2018-04-20T02:21:21.864Z,13.40
2018-04-20T02:22:21.816Z,12.40
2018-04-20T02:23:21.942Z,12.00
2018-04-20T02:24:21.786Z,11.90
2018-04-20T02:25:21.803Z,11.10
2018-04-20T02:26:21.981Z,11.80
2018-04-20T02:27:21.809Z,15.10
2018-04-20T02:28:21.841Z,13.30
2018-04-20T02:29:22.040Z,11.70
2018-04-20T02:30:21.815Z,12.70
2018-04-20T02:31:21.943Z,12.10
2018-04-20T02:32:21.795Z,13.00
2018-04-20T02:33:21.976Z,12.60
2018-04-20T02:34:21.976Z,12.40
2018-04-20T02:35:22.094Z,13.20
2018-04-20T02:36:21.897Z,12.20
2018-04-20T02:37:22.081Z,13.10
2018-04-20T02:38:21.904Z,12.30
2018-04-20T02:39:21.880Z,12.80
2018-04-20T02:40:21.973Z,13.20
2018-04-20T02:41:22.716Z,13.20
2018-04-20T02:42:22.019Z,14.40
2018-04-20T02:43:22.037Z,12.80
2018-04-20T02:44:22.061Z,13.40
2018-04-20T02:45:22.011Z,13.30
2018-04-20T02:46:22.025Z,12.80
2018-04-20T02:47:21.941Z,13.10
2018-04-20T02:48:21.937Z,12.70
2018-04-20T02:49:22.166Z,13.80
2018-04-20T02:50:21.978Z,14.90
2018-04-20T02:51:21.903Z,13.80
2018-04-20T02:52:21.961Z,13.50
2018-04-20T02:53:22.731Z,13.10
2018-04-20T02:54:22.069Z,14.10
2018-04-20T02:55:22.721Z,13.70
2018-04-20T02:56:22.090Z,13.90
2018-04-20T02:57:21.903Z,13.50
2018-04-20T02:58:22.119Z,14.30
2018-04-20T02:59:22.121Z,13.60
2018-04-20T03:00:22.203Z,13.30
2018-04-20T03:01:54.741Z,15.10
2018-04-20T03:02:22.920Z,13.50
2018-04-20T03:03:22.005Z,13.60
2018-04-20T03:04:22.027Z,14.50
2018-04-20T03:05:22.094Z,14.10
2018-04-20T03:06:22.075Z,13.40
2018-04-20T03:07:22.047Z,13.50
2018-04-20T03:08:22.724Z,15.30
2018-04-20T03:09:22.117Z,15.60
2018-04-20T03:10:22.026Z,13.80
2018-04-20T03:11:22.047Z,13.40
2018-04-20T03:12:22.042Z,13.90
2018-04-20T03:13:22.055Z,15.10
2018-04-20T03:14:22.071Z,13.60
2018-04-20T03:15:22.174Z,14.50
2018-04-20T03:16:22.013Z,13.70
2018-04-20T03:17:22.213Z,14.90
2018-04-20T03:18:21.937Z,14.40
2018-04-20T03:19:22.055Z,14.80
2018-04-20T03:20:21.929Z,14.10
2018-04-20T03:21:22.021Z,14.60
2018-04-20T03:22:21.975Z,15.10
2018-04-20T03:23:22.016Z,14.60
2018-04-20T03:24:22.276Z,14.60
2018-04-20T03:25:23.910Z,15.20
2018-04-20T03:26:22.039Z,15.60
2018-04-20T03:27:22.772Z,15.70
2018-04-20T03:28:22.056Z,16.10
2018-04-20T03:29:21.993Z,15.70
2018-04-20T03:30:22.167Z,16.40
2018-04-20T03:31:22.210Z,15.80
2018-04-20T03:32:22.187Z,17.50
2018-04-20T03:33:22.009Z,16.70
2018-04-20T03:34:22.090Z,17.60
2018-04-20T03:35:22.119Z,16.90
2018-04-20T03:36:22.082Z,17.40
2018-04-20T03:37:22.088Z,17.50
2018-04-20T03:38:22.033Z,16.70
2018-04-20T03:39:22.248Z,16.20
2018-04-20T03:40:22.171Z,17.20
2018-04-20T03:41:22.076Z,17.70
2018-04-20T03:42:22.081Z,17.30
2018-04-20T03:43:22.071Z,16.90
2018-04-20T03:44:22.097Z,18.70
2018-04-20T03:45:22.194Z,17.80
2018-04-20T03:46:22.193Z,19.10
2018-04-20T03:47:22.744Z,17.80
2018-04-20T03:48:22.098Z,17.60
2018-04-20T03:49:22.182Z,19.70
2018-04-20T03:50:22.220Z,20.50
2018-04-20T03:51:22.114Z,19.50
2018-04-20T03:52:22.123Z,18.70
2018-04-20T03:53:22.121Z,22.90
2018-04-20T03:54:22.147Z,19.40
2018-04-20T03:55:22.409Z,18.60
2018-04-20T03:56:22.193Z,18.70
2018-04-20T03:57:22.191Z,18.90
2018-04-20T03:58:22.168Z,20.10
2018-04-20T03:59:22.113Z,19.60
2018-04-20T04:00:22.271Z,18.00
2018-04-20T04:01:22.260Z,17.70
2018-04-20T04:02:22.189Z,17.80
2018-04-20T04:03:22.132Z,17.30
2018-04-20T04:04:22.169Z,17.80
2018-04-20T04:05:22.330Z,16.70
2018-04-20T04:06:22.216Z,18.60
2018-04-20T04:07:22.114Z,15.90
2018-04-20T04:08:22.289Z,16.70
2018-04-20T04:09:22.252Z,16.50
2018-04-20T04:10:22.407Z,24.40
2018-04-20T04:11:22.369Z,18.00
2018-04-20T04:12:22.347Z,17.80
2018-04-20T04:13:22.245Z,17.60
2018-04-20T04:14:22.329Z,19.50
2018-04-20T04:15:27.781Z,18.30
2018-04-20T04:16:22.281Z,18.60
2018-04-20T04:17:25.258Z,17.00
2018-04-20T04:18:33.026Z,17.50
2018-04-20T04:19:22.222Z,19.70
2018-04-20T04:20:22.291Z,18.30
2018-04-20T04:21:22.325Z,17.90
2018-04-20T04:22:22.277Z,17.90
2018-04-20T04:23:22.238Z,18.90
2018-04-20T04:24:22.302Z,18.80
2018-04-20T04:25:22.393Z,18.20
2018-04-20T04:26:22.235Z,18.30
2018-04-20T04:27:22.877Z,18.10
2018-04-20T04:28:22.754Z,18.40
2018-04-20T04:29:22.497Z,18.40
2018-04-20T04:30:22.402Z,19.10
2018-04-20T04:31:22.220Z,18.90
2018-04-20T04:32:22.435Z,18.80
2018-04-20T04:33:22.413Z,17.60
2018-04-20T04:34:22.288Z,19.00
2018-04-20T04:35:22.308Z,19.00
2018-04-20T04:36:22.278Z,19.80
2018-04-20T04:37:22.329Z,17.80
2018-04-20T04:38:22.914Z,17.80
2018-04-20T04:39:22.491Z,19.70
2018-04-20T04:40:22.296Z,18.90
2018-04-20T04:41:22.404Z,19.60
2018-04-20T04:42:22.297Z,18.30
2018-04-20T04:43:22.302Z,17.00
2018-04-20T04:44:22.362Z,17.80
2018-04-20T04:45:22.521Z,17.50
2018-04-20T04:46:22.342Z,18.10
2018-04-20T04:47:22.414Z,17.80
2018-04-20T04:48:22.368Z,19.30
2018-04-20T04:49:22.386Z,19.40
2018-04-20T04:50:22.824Z,18.70
2018-04-20T04:51:22.553Z,18.10
2018-04-20T04:52:22.378Z,17.10
2018-04-20T04:53:22.496Z,19.30
2018-04-20T04:54:22.296Z,18.50
2018-04-20T04:55:22.343Z,17.20
2018-04-20T04:56:22.273Z,17.80
2018-04-20T04:57:22.372Z,17.20
2018-04-20T04:58:22.468Z,17.30
2018-04-20T04:59:22.335Z,16.50
2018-04-20T05:00:22.433Z,17.80
2018-04-20T05:01:22.417Z,16.70
2018-04-20T05:02:22.427Z,17.40
2018-04-20T05:03:22.543Z,17.70
2018-04-20T05:04:22.443Z,17.60
2018-04-20T05:05:22.349Z,17.10
2018-04-20T05:06:22.470Z,19.30
2018-04-20T05:07:22.349Z,20.40
2018-04-20T05:08:22.391Z,17.80
2018-04-20T05:09:22.355Z,17.60
2018-04-20T05:10:22.437Z,17.40
2018-04-20T05:11:22.354Z,17.50
2018-04-20T05:12:22.596Z,18.50
2018-04-20T05:13:22.385Z,18.00
2018-04-20T05:14:22.390Z,17.00
2018-04-20T05:15:22.397Z,18.40
2018-04-20T05:16:22.335Z,17.00
2018-04-20T05:17:22.344Z,19.40
2018-04-20T05:18:22.492Z,18.50
2018-04-20T05:19:22.455Z,19.00
2018-04-20T05:20:22.505Z,19.30
2018-04-20T05:21:22.404Z,20.10
2018-04-20T05:22:22.513Z,19.20
2018-04-20T05:23:22.532Z,23.10
2018-04-20T05:24:22.523Z,18.50
2018-04-20T05:25:22.546Z,18.00
2018-04-20T05:26:24.107Z,17.60
2018-04-20T05:27:22.642Z,21.30
2018-04-20T05:28:22.681Z,20.00
2018-04-20T05:29:22.421Z,23.60
2018-04-20T05:30:22.923Z,19.30
2018-04-20T05:31:23.816Z,20.70
2018-04-20T05:32:23.290Z,18.60
2018-04-20T05:33:22.423Z,20.10
2018-04-20T05:34:22.405Z,23.20
2018-04-20T05:35:22.458Z,22.20
2018-04-20T05:36:22.639Z,20.30
2018-04-20T05:37:22.464Z,20.90
2018-04-20T05:38:22.543Z,23.20
2018-04-20T05:39:22.728Z,25.70
2018-04-20T05:40:22.561Z,27.80
2018-04-20T05:41:22.802Z,23.60
2018-04-20T05:42:23.773Z,22.40
2018-04-20T05:43:22.866Z,24.80
2018-04-20T05:44:22.847Z,22.50
2018-04-20T05:45:26.735Z,27.50
2018-04-20T05:46:23.058Z,23.80
2018-04-20T05:47:26.834Z,23.10
2018-04-20T05:48:22.536Z,27.30
2018-04-20T05:49:23.773Z,20.60
2018-04-20T05:50:24.305Z,29.20
2018-04-20T05:51:23.283Z,22.20
2018-04-20T05:52:23.194Z,23.20
2018-04-20T05:53:23.150Z,25.40
2018-04-20T05:56:01.815Z,26.90
2018-04-20T05:56:54.584Z,21.30
2018-04-20T06:02:48.477Z,21.80
2018-04-20T06:05:34.078Z,20.60
2018-04-20T06:06:28.400Z,22.80
2018-04-20T06:07:30.623Z,23.10
2018-04-20T06:19:54.800Z,23.20
2018-04-20T06:20:54.736Z,21.20
2018-04-20T06:21:54.802Z,22.50
2018-04-20T06:22:55.120Z,21.90
2018-04-20T06:23:54.754Z,22.60
2018-04-20T06:24:54.783Z,18.80
2018-04-20T06:25:54.770Z,18.70
2018-04-20T06:26:55.669Z,21.50
2018-04-20T06:27:54.785Z,17.90
2018-04-20T06:28:54.784Z,15.00
2018-04-20T06:29:54.800Z,17.90
2018-04-20T06:30:54.805Z,16.90
2018-04-20T06:31:54.811Z,15.40
2018-04-20T06:32:54.843Z,16.30
2018-04-20T06:33:54.825Z,15.80
2018-04-20T06:34:54.859Z,19.60
2018-04-20T06:35:54.865Z,15.10
2018-04-20T06:36:54.855Z,13.10
2018-04-20T06:37:54.884Z,12.80
2018-04-20T06:38:54.881Z,15.50
2018-04-20T06:39:54.900Z,14.70
2018-04-20T06:40:54.894Z,14.00
2018-04-20T06:41:54.914Z,15.10
2018-04-20T06:42:54.897Z,11.80
2018-04-20T06:43:54.912Z,12.80
2018-04-20T06:44:54.925Z,11.30
2018-04-20T06:45:54.920Z,11.50
2018-04-20T06:46:54.937Z,11.90
2018-04-20T06:47:54.950Z,11.40
2018-04-20T06:48:54.979Z,13.30
2018-04-20T06:49:54.965Z,12.80
2018-04-20T06:50:55.071Z,11.80
2018-04-20T06:51:55.058Z,11.00
2018-04-20T06:52:55.047Z,11.30
2018-04-20T06:53:55.012Z,12.90
2018-04-20T06:54:55.032Z,12.10
2018-04-20T06:55:55.023Z,15.10
2018-04-20T06:56:55.039Z,14.70
2018-04-20T06:57:55.039Z,11.90
2018-04-20T06:58:55.057Z,10.90
2018-04-20T06:59:55.062Z,14.00
2018-04-20T07:00:55.307Z,13.80
2018-04-20T07:01:55.468Z,11.80
2018-04-20T07:02:55.413Z,12.80
2018-04-20T07:03:55.856Z,11.50
2018-04-20T07:04:55.123Z,14.00
2018-04-20T07:05:55.121Z,10.70
2018-04-20T07:06:55.778Z,10.80
2018-04-20T07:07:56.161Z,11.80
2018-04-20T07:08:55.240Z,13.90
2018-04-20T07:09:55.302Z,12.60
2018-04-20T07:10:55.227Z,9.30
2018-04-20T07:11:55.237Z,11.00
2018-04-20T07:12:55.233Z,9.10
2018-04-20T07:13:55.291Z,9.60
2018-04-20T07:14:55.275Z,11.10
2018-04-20T07:15:55.331Z,12.30
2018-04-20T07:16:55.327Z,12.40
2018-04-20T07:17:55.320Z,9.80
2018-04-20T07:18:55.912Z,11.80
2018-04-20T07:19:55.421Z,12.70
2018-04-20T07:20:55.318Z,14.30
2018-04-20T07:21:55.353Z,12.00
2018-04-20T07:22:55.465Z,14.30
2018-04-20T07:23:55.523Z,11.80
2018-04-20T07:24:55.383Z,14.40
2018-04-20T07:25:55.403Z,11.50
2018-04-20T07:26:55.398Z,11.00
2018-04-20T07:27:55.625Z,11.20
2018-04-20T07:28:55.646Z,11.60
2018-04-20T07:29:55.649Z,11.50
2018-04-20T07:30:55.459Z,10.80
2018-04-20T07:31:55.553Z,13.10
2018-04-20T07:32:55.496Z,17.10
2018-04-20T07:33:55.560Z,18.40
2018-04-20T07:34:55.756Z,14.80
2018-04-20T07:35:55.500Z,15.00
2018-04-20T07:36:55.580Z,14.60
2018-04-20T07:37:56.286Z,17.10
2018-04-20T07:38:55.646Z,15.10
2018-04-20T07:39:55.576Z,13.80
2018-04-20T07:40:55.572Z,14.00
2018-04-20T07:41:55.579Z,11.20
2018-04-20T07:42:55.635Z,15.20
2018-04-20T07:43:55.725Z,11.80
2018-04-20T07:44:55.631Z,15.30
2018-04-20T07:45:55.650Z,9.70
2018-04-20T07:46:55.640Z,9.90
2018-04-20T07:47:55.658Z,11.40
2018-04-20T07:48:55.670Z,9.00
2018-04-20T07:49:55.706Z,9.80
2018-04-20T07:50:55.755Z,10.20
2018-04-20T07:51:55.765Z,9.10
2018-04-20T07:52:55.775Z,8.80
2018-04-20T07:53:55.745Z,10.70
2018-04-20T07:54:55.790Z,11.90
2018-04-20T07:55:55.884Z,9.60
2018-04-20T07:56:55.780Z,10.30
2018-04-20T07:57:55.815Z,9.40
2018-04-20T07:58:55.824Z,9.80
2018-04-20T07:59:55.927Z,11.70
2018-04-20T08:00:55.876Z,9.70
2018-04-20T08:01:55.902Z,9.70
2018-04-20T08:02:55.879Z,9.30
2018-04-20T08:03:55.901Z,14.60
2018-04-20T08:04:55.928Z,9.70
2018-04-20T08:05:55.997Z,10.10
2018-04-20T08:06:56.048Z,9.40
2018-04-20T08:07:57.735Z,9.10
2018-04-20T08:08:56.144Z,11.60
2018-04-20T08:09:56.111Z,10.00
2018-04-20T08:10:56.885Z,9.80
2018-04-20T08:11:56.682Z,10.70
2018-04-20T08:12:56.080Z,10.00
2018-04-20T08:13:56.228Z,11.60
2018-04-20T08:14:56.211Z,10.70
2018-04-20T08:15:56.502Z,10.60
2018-04-20T08:16:56.312Z,10.10
2018-04-20T08:17:56.166Z,14.20
2018-04-20T08:18:56.305Z,10.80
2018-04-20T08:19:56.849Z,10.90
2018-04-20T08:20:56.247Z,10.30
2018-04-20T08:21:56.226Z,10.50
2018-04-20T08:22:56.244Z,10.40
2018-04-20T08:23:56.246Z,11.10
2018-04-20T08:24:56.272Z,11.00
2018-04-20T08:25:56.360Z,10.80
2018-04-20T08:26:56.282Z,11.30
2018-04-20T08:27:56.361Z,12.10
2018-04-20T08:28:56.382Z,11.00
2018-04-20T08:29:57.345Z,11.30
2018-04-20T08:30:56.376Z,10.90
2018-04-20T08:31:56.416Z,15.40
2018-04-20T08:32:56.447Z,11.60
2018-04-20T08:33:57.420Z,11.50
2018-04-20T08:34:56.523Z,13.70
2018-04-20T08:35:56.554Z,12.70
2018-04-20T08:36:56.524Z,13.60
2018-04-20T08:37:56.540Z,11.40
2018-04-20T08:38:56.595Z,13.50
2018-04-20T08:39:56.620Z,13.70
2018-04-20T08:40:56.660Z,12.50
2018-04-20T08:41:56.637Z,13.50
2018-04-20T08:42:56.595Z,13.40
2018-04-20T08:43:56.632Z,12.50
2018-04-20T08:44:56.739Z,13.30
2018-04-20T08:45:56.747Z,13.30
2018-04-20T08:46:56.775Z,14.20
2018-04-20T08:47:56.843Z,17.20
2018-04-20T08:48:56.695Z,14.50
2018-04-20T08:49:56.783Z,17.40
2018-04-20T08:50:56.803Z,13.90
2018-04-20T08:51:56.845Z,12.70
2018-04-20T08:52:56.843Z,12.40
2018-04-20T08:53:56.834Z,13.90
2018-04-20T08:54:56.822Z,14.90
2018-04-20T08:55:56.869Z,14.70
2018-04-20T08:56:56.866Z,16.00
2018-04-20T08:57:57.789Z,15.50
2018-04-20T08:58:56.909Z,15.50
2018-04-20T08:59:57.054Z,14.60
2018-04-20T09:00:56.961Z,14.60
2018-04-20T09:01:57.009Z,15.80
2018-04-20T09:02:56.970Z,14.70
2018-04-20T09:03:57.050Z,14.70
2018-04-20T09:04:57.088Z,15.40
2018-04-20T09:05:57.076Z,15.00
2018-04-20T09:06:57.098Z,14.60
2018-04-20T09:07:57.240Z,16.20
2018-04-20T09:08:57.116Z,16.20
2018-04-20T09:09:57.206Z,15.40
2018-04-20T09:10:57.181Z,16.30
2018-04-20T09:11:57.167Z,15.60
2018-04-20T09:12:57.188Z,15.10
2018-04-20T09:13:57.192Z,15.40
2018-04-20T09:14:57.225Z,16.90
2018-04-20T09:15:57.245Z,15.20
2018-04-20T09:16:57.269Z,16.60
2018-04-20T09:17:57.350Z,17.80
2018-04-20T09:18:57.349Z,17.50
2018-04-20T09:19:58.282Z,14.90
2018-04-20T09:20:57.435Z,14.00
2018-04-20T09:21:57.428Z,18.30
2018-04-20T09:22:57.488Z,15.20
2018-04-20T09:23:57.510Z,17.80
2018-04-20T09:29:39.336Z,16.00
2018-04-20T09:30:38.060Z,16.20
2018-04-20T09:31:38.077Z,17.60
2018-04-20T09:32:38.093Z,15.60
2018-04-20T09:33:38.128Z,14.80
2018-04-20T09:34:38.132Z,16.00
2018-04-20T09:35:38.175Z,15.70
2018-04-20T09:36:38.208Z,16.20
2018-04-20T09:37:38.252Z,15.20
2018-04-20T09:38:38.813Z,15.50
2018-04-20T09:39:38.987Z,16.50
2018-04-20T09:40:38.368Z,16.60
2018-04-20T09:49:24.120Z,16.40
2018-04-20T09:50:19.903Z,14.80
2018-04-20T09:51:20.015Z,15.30
2018-04-20T09:52:20.021Z,14.80
2018-04-20T09:53:19.968Z,15.00
2018-04-20T09:54:20.961Z,16.90
2018-04-20T09:55:20.232Z,15.50
2018-04-20T09:56:22.667Z,15.30
2018-04-20T09:57:20.265Z,15.60
2018-04-20T09:58:20.563Z,15.80
2018-04-20T09:59:20.283Z,16.40
2018-04-20T10:00:20.173Z,16.00
2018-04-20T10:01:20.976Z,18.60
2018-04-20T10:02:21.358Z,17.20
2018-04-20T10:03:20.344Z,16.40
2018-04-20T10:04:20.970Z,15.70
2018-04-20T10:05:20.341Z,16.10
2018-04-20T10:06:20.979Z,14.30
2018-04-20T10:07:20.310Z,15.50
2018-04-20T10:08:20.321Z,17.50
2018-04-20T10:09:20.388Z,14.70
2018-04-20T10:10:20.449Z,16.60
2018-04-20T10:11:20.397Z,15.50
2018-04-20T10:12:20.570Z,15.40
2018-04-20T10:13:20.559Z,15.80
2018-04-20T10:14:20.467Z,16.50
2018-04-20T10:15:20.520Z,14.90
2018-04-20T10:16:20.543Z,13.80
2018-04-20T10:17:20.594Z,13.60
2018-04-20T10:18:20.633Z,14.50
2018-04-20T10:19:20.618Z,14.70
2018-04-20T10:20:20.622Z,14.10
2018-04-20T10:21:20.667Z,14.30
2018-04-20T10:22:20.673Z,16.60
2018-04-20T10:23:20.703Z,13.00
2018-04-20T10:24:20.751Z,15.00
2018-04-20T10:25:20.750Z,13.90
2018-04-20T10:26:20.904Z,15.30
2018-04-20T10:27:20.812Z,14.70
2018-04-20T10:28:20.821Z,14.40
2018-04-20T10:29:20.844Z,16.10
2018-04-20T10:30:20.880Z,14.30
2018-04-20T10:31:20.895Z,13.70
2018-04-20T10:32:20.916Z,13.70
2018-04-20T10:33:20.941Z,13.40
2018-04-20T10:34:20.976Z,14.40
2018-04-20T10:35:21.001Z,13.60
2018-04-20T10:36:21.112Z,12.20
2018-04-20T10:37:21.040Z,13.10
2018-04-20T10:38:21.085Z,13.60
2018-04-20T10:39:21.093Z,13.40
2018-04-20T10:40:21.136Z,13.40
2018-04-20T10:41:21.143Z,13.30
2018-04-20T10:42:21.175Z,14.90
2018-04-20T10:43:21.226Z,13.60
2018-04-20T10:44:21.220Z,16.30
2018-04-20T10:45:21.245Z,14.40
2018-04-20T10:46:21.311Z,13.60
2018-04-20T10:47:21.315Z,15.10
2018-04-20T10:48:21.340Z,13.60
2018-04-20T10:49:21.347Z,12.20
2018-04-20T10:50:21.378Z,12.80
2018-04-20T10:51:21.431Z,14.80
2018-04-20T10:52:21.436Z,14.30
2018-04-20T10:53:21.526Z,11.90
2018-04-20T10:54:21.490Z,12.40
2018-04-20T10:55:21.544Z,12.10
2018-04-20T10:56:21.526Z,12.10
2018-04-20T10:57:21.565Z,11.30
2018-04-20T10:58:21.594Z,11.80
2018-04-20T10:59:21.617Z,13.30
2018-04-20T11:00:21.610Z,12.10
2018-04-20T11:01:21.683Z,12.20
2018-04-20T11:02:21.668Z,12.50
2018-04-20T11:03:21.692Z,15.50
2018-04-20T11:04:21.713Z,14.00
2018-04-20T11:05:22.506Z,14.10
2018-04-20T11:06:21.742Z,15.40
2018-04-20T11:07:21.775Z,15.00
2018-04-20T11:08:21.795Z,14.20
2018-04-20T11:09:21.866Z,14.00
2018-04-20T11:10:21.867Z,14.10
2018-04-20T11:11:21.959Z,13.30
2018-04-20T11:12:21.887Z,13.10
2018-04-20T11:13:21.932Z,11.90
2018-04-20T11:14:22.053Z,13.10
2018-04-20T11:15:21.947Z,13.00
2018-04-20T11:16:25.509Z,12.40
2018-04-20T11:17:21.994Z,12.90
2018-04-20T11:18:22.283Z,14.20
2018-04-20T11:19:22.514Z,13.00
2018-04-20T11:20:22.096Z,12.30
2018-04-20T11:21:23.016Z,11.40
2018-04-20T11:22:22.252Z,10.40
2018-04-20T11:23:22.672Z,12.40
2018-04-20T11:24:22.472Z,11.70
2018-04-20T11:25:23.022Z,10.10
2018-04-20T11:26:22.334Z,13.70
2018-04-20T11:27:22.230Z,16.20
2018-04-20T11:28:22.251Z,14.30
2018-04-20T11:29:22.300Z,13.20
2018-04-20T11:30:22.231Z,13.50
2018-04-20T11:31:22.266Z,11.90
2018-04-20T11:32:22.271Z,11.20
2018-04-20T11:33:22.446Z,11.40
2018-04-20T11:34:22.375Z,11.40
2018-04-20T11:35:23.018Z,11.40
2018-04-20T11:36:22.307Z,10.20
2018-04-20T11:37:22.625Z,10.10
2018-04-20T11:38:23.766Z,12.10
2018-04-20T11:39:23.034Z,8.90
2018-04-20T11:40:23.254Z,10.10
2018-04-20T11:41:22.462Z,10.70
2018-04-20T11:42:22.532Z,9.60
2018-04-20T11:43:22.539Z,9.60
2018-04-20T11:44:22.555Z,9.70
2018-04-20T11:45:22.521Z,9.70
2018-04-20T11:46:22.565Z,9.90
2018-04-20T11:47:22.510Z,11.40
2018-04-20T11:48:22.560Z,11.00
2018-04-20T11:49:23.030Z,11.70
2018-04-20T11:50:22.560Z,13.30
2018-04-20T11:51:22.512Z,12.50
2018-04-20T11:52:22.545Z,11.70
2018-04-20T11:53:22.544Z,10.50
2018-04-20T11:54:22.586Z,10.50
2018-04-20T11:55:22.589Z,13.60
2018-04-20T11:56:22.627Z,10.30
2018-04-20T11:57:22.642Z,10.90
2018-04-20T11:58:22.709Z,12.10
2018-04-20T11:59:22.630Z,9.50
2018-04-20T12:00:22.767Z,11.70
2018-04-20T12:01:22.647Z,10.90
2018-04-20T12:02:23.547Z,11.10
2018-04-20T12:03:22.735Z,12.00
2018-04-20T12:04:22.674Z,11.20
2018-04-20T12:05:22.747Z,12.50
2018-04-20T12:06:22.758Z,11.60
2018-04-20T12:07:22.753Z,11.00
2018-04-20T12:08:22.758Z,10.70
2018-04-20T12:09:22.794Z,12.20
2018-04-20T12:10:22.828Z,12.50
2018-04-20T12:11:22.834Z,12.00
2018-04-20T12:12:22.833Z,13.90
2018-04-20T12:13:22.851Z,13.50
2018-04-20T12:14:22.803Z,12.00
2018-04-20T12:15:22.960Z,10.20
2018-04-20T12:16:22.867Z,10.60
2018-04-20T12:17:22.870Z,12.80
2018-04-20T12:18:22.852Z,12.70
2018-04-20T12:19:22.874Z,11.40
2018-04-20T12:20:22.927Z,11.60
2018-04-20T12:21:22.960Z,12.70
2018-04-20T12:22:22.943Z,10.70
2018-04-20T12:23:23.072Z,11.80
2018-04-20T12:24:22.954Z,11.50
2018-04-20T12:25:22.948Z,11.90
2018-04-20T12:26:22.976Z,13.50
2018-04-20T12:27:23.035Z,11.80
2018-04-20T12:28:22.994Z,12.80
2018-04-20T12:29:22.999Z,13.10
2018-04-20T12:30:23.008Z,11.20
2018-04-20T12:31:23.051Z,9.50
2018-04-20T12:32:23.121Z,11.20
2018-04-20T12:37:09.440Z,11.10
2018-04-20T12:37:41.053Z,9.60
2018-04-20T12:38:41.614Z,11.90
2018-04-20T12:39:40.636Z,12.20
2018-04-20T12:40:40.667Z,13.20
2018-04-20T12:41:40.653Z,12.40
2018-04-20T12:42:40.725Z,12.60
2018-04-20T12:43:40.667Z,13.40
2018-04-20T12:44:40.678Z,11.80
2018-04-20T12:45:40.697Z,10.90
2018-04-20T12:46:41.831Z,9.40
2018-04-20T12:47:40.749Z,10.20
2018-04-20T12:48:40.729Z,11.80
2018-04-20T12:49:40.766Z,8.80
2018-04-20T12:50:40.777Z,9.00
2018-04-20T12:51:40.796Z,10.00
2018-04-20T12:52:40.816Z,10.00
2018-04-20T12:53:40.789Z,9.50
2018-04-20T12:54:40.795Z,10.00
2018-04-20T12:55:40.803Z,10.40
2018-04-20T12:56:40.949Z,11.90
2018-04-20T12:57:40.868Z,10.80
2018-04-20T12:58:40.858Z,12.00
2018-04-20T12:59:40.873Z,8.20
2018-04-20T13:00:40.885Z,7.90
2018-04-20T13:01:41.829Z,8.60
2018-04-20T13:02:40.936Z,7.70
2018-04-20T13:03:40.905Z,7.60
2018-04-20T13:04:40.937Z,8.30
2018-04-20T13:05:40.959Z,7.90
2018-04-20T13:06:41.494Z,8.60
2018-04-20T13:07:40.980Z,8.00
2018-04-20T13:08:40.974Z,9.30
2018-04-20T13:09:40.968Z,9.60
2018-04-20T13:10:40.988Z,11.20
2018-04-20T13:11:41.070Z,8.00
2018-04-20T13:12:41.012Z,9.10
2018-04-20T13:13:41.022Z,8.80
2018-04-20T13:14:41.040Z,10.20
2018-04-20T13:15:41.048Z,10.80
2018-04-20T13:16:41.038Z,7.10
2018-04-20T13:17:41.066Z,10.10
2018-04-20T13:18:41.111Z,10.00
2018-04-20T13:19:41.071Z,7.60
2018-04-20T13:20:41.087Z,9.50
2018-04-20T13:21:41.155Z,10.30
2018-04-20T13:22:41.123Z,10.40
2018-04-20T13:23:41.121Z,9.50
2018-04-20T13:24:41.151Z,10.30
2018-04-20T13:25:41.207Z,8.10
2018-04-20T13:26:41.182Z,9.60
2018-04-20T13:27:41.168Z,15.80
2018-04-20T13:28:41.187Z,19.70
2018-04-20T13:29:41.231Z,8.30
2018-04-20T13:30:41.193Z,6.20
2018-04-20T13:31:41.842Z,8.10
2018-04-20T13:32:41.211Z,10.20
2018-04-20T13:33:41.230Z,9.40
2018-04-20T13:34:41.233Z,8.60
2018-04-20T13:35:41.260Z,6.80
2018-04-20T13:36:41.266Z,8.80
2018-04-20T13:37:41.285Z,8.90
2018-04-20T13:38:41.310Z,8.60
2018-04-20T13:39:41.411Z,8.70
2018-04-20T13:40:41.324Z,9.10
2018-04-20T13:41:41.852Z,8.20
2018-04-20T13:42:41.853Z,10.80
2018-04-20T13:43:41.331Z,8.90
2018-04-20T13:44:41.393Z,9.60
2018-04-20T13:45:41.368Z,7.20
2018-04-20T13:46:41.365Z,7.00
2018-04-20T13:47:41.374Z,9.00
2018-04-20T13:48:41.446Z,8.00
2018-04-20T13:49:41.418Z,9.20
2018-04-20T13:50:41.430Z,7.20
2018-04-20T13:51:41.451Z,10.00
2018-04-20T13:52:41.493Z,6.90
2018-04-20T13:53:41.482Z,11.90
2018-04-20T13:54:41.456Z,9.30
2018-04-20T13:55:41.502Z,8.30
2018-04-20T13:56:46.860Z,9.00
2018-04-20T13:57:45.362Z,8.70
2018-04-20T13:58:45.392Z,9.30